createdAt,value
2018-08-23T00:03:11.798Z,17.50
2018-08-23T00:07:15.276Z,17.50
2018-08-23T00:11:23.616Z,17.40
2018-08-23T00:15:31.556Z,17.40
2018-08-23T00:19:34.659Z,17.40
2018-08-23T00:23:37.740Z,17.30
2018-08-23T00:27:41.672Z,17.30
2018-08-23T00:31:50.680Z,17.30
2018-08-23T00:35:54.196Z,17.30
2018-08-23T00:44:04.548Z,17.20
2018-08-23T00:48:07.639Z,17.20
2018-08-23T00:52:10.763Z,17.10
2018-08-23T00:56:19.205Z,17.10
2018-08-23T01:00:24.496Z,17.10
2018-08-23T01:04:28.336Z,17.10
2018-08-23T01:08:34.387Z,17.10
2018-08-23T01:12:47.644Z,17.20
2018-08-23T01:17:04.888Z,17.10
2018-08-23T01:21:08.791Z,17.20
2018-08-23T01:25:11.920Z,17.20
2018-08-23T01:29:27.299Z,17.20
2018-08-23T01:33:30.449Z,17.20
2018-08-23T01:37:36.799Z,17.30
2018-08-23T01:41:39.919Z,17.30
2018-08-23T01:45:43.084Z,17.30
2018-08-23T01:49:46.332Z,17.30
2018-08-23T01:53:49.522Z,17.40
2018-08-23T01:57:52.917Z,17.40
2018-08-23T02:01:56.463Z,17.40
2018-08-23T02:05:59.684Z,17.40
2018-08-23T02:10:02.818Z,17.40
2018-08-23T02:14:05.941Z,17.50
2018-08-23T02:18:09.032Z,17.30
2018-08-23T02:22:12.360Z,17.30
2018-08-23T02:26:15.460Z,17.20
2018-08-23T02:30:56.069Z,17.30
2018-08-23T02:35:04.461Z,17.30
2018-08-23T02:39:09.178Z,17.40
2018-08-23T02:43:12.284Z,17.50
2018-08-23T02:47:16.350Z,17.40
2018-08-23T02:51:19.547Z,17.40
2018-08-23T02:55:22.732Z,17.40
2018-08-23T02:59:25.916Z,17.40
2018-08-23T03:03:29.052Z,17.20
2018-08-23T03:07:32.155Z,17.30
2018-08-23T03:11:37.227Z,17.30
2018-08-23T03:15:40.333Z,17.30
2018-08-23T03:20:03.012Z,17.40
2018-08-23T03:24:06.100Z,17.40
2018-08-23T03:32:12.256Z,17.50
2018-08-23T03:36:15.491Z,17.50
2018-08-23T03:40:18.777Z,17.60
2018-08-23T03:44:26.196Z,17.60
2018-08-23T03:52:37.548Z,17.70
2018-08-23T03:56:43.080Z,17.70
2018-08-23T04:01:02.400Z,17.60
2018-08-23T04:05:12.469Z,17.60
2018-08-23T04:09:15.686Z,17.70
2018-08-23T04:13:18.775Z,17.60
2018-08-23T04:17:21.969Z,17.70
2018-08-23T04:25:28.445Z,17.80
2018-08-23T04:29:36.792Z,17.70
2018-08-23T04:33:40.020Z,17.70
2018-08-23T04:37:43.112Z,17.70
2018-08-23T04:41:46.501Z,17.70
2018-08-23T04:45:49.587Z,17.60
2018-08-23T04:49:52.796Z,17.70
2018-08-23T04:53:55.900Z,17.70
2018-08-23T04:57:59.856Z,17.70
2018-08-23T05:02:02.957Z,17.70
2018-08-23T05:10:09.189Z,17.70
2018-08-23T05:14:12.660Z,17.80
2018-08-23T05:18:15.755Z,17.80
2018-08-23T05:22:18.990Z,17.80
2018-08-23T05:26:22.328Z,17.70
2018-08-23T05:30:25.924Z,17.70
2018-08-23T05:34:29.050Z,17.70
2018-08-23T05:38:32.154Z,17.70
2018-08-23T05:42:50.422Z,17.80
2018-08-23T05:46:55.323Z,17.80
2018-08-23T05:50:59.380Z,17.90
2018-08-23T05:55:02.464Z,17.90
2018-08-23T05:59:09.628Z,17.80
2018-08-23T06:03:13.860Z,17.80
2018-08-23T06:07:17.000Z,17.80
2018-08-23T06:11:20.105Z,17.90
2018-08-23T06:19:27.216Z,18.00
2018-08-23T06:24:07.208Z,18.00
2018-08-23T06:28:15.381Z,18.10
2018-08-23T06:32:18.582Z,18.10
2018-08-23T06:36:21.732Z,18.30
2018-08-23T06:40:24.965Z,18.30
2018-08-23T06:44:40.777Z,18.40
2018-08-23T06:48:44.064Z,18.50
2018-08-23T06:52:49.152Z,18.60
2018-08-23T06:56:52.421Z,18.70
2018-08-23T07:00:55.520Z,18.80
2018-08-23T07:04:58.640Z,18.90
2018-08-23T07:09:02.196Z,19.00
2018-08-23T07:13:05.676Z,19.00
2018-08-23T07:17:17.698Z,19.10
2018-08-23T07:21:20.776Z,19.20
2018-08-23T07:25:23.855Z,19.40
2018-08-23T07:29:27.251Z,19.40
2018-08-23T07:33:32.072Z,19.50
2018-08-23T07:37:36.377Z,19.50
2018-08-23T07:41:39.460Z,19.50
2018-08-23T07:45:42.672Z,19.50
2018-08-23T07:49:45.748Z,19.50
2018-08-23T07:53:48.901Z,19.60
2018-08-23T07:57:51.987Z,19.70
2018-08-23T08:01:55.274Z,19.70
2018-08-23T08:06:05.209Z,19.80
2018-08-23T08:10:12.670Z,19.70
2018-08-23T08:14:21.116Z,20.00
2018-08-23T08:18:24.263Z,20.00
2018-08-23T08:30:41.581Z,20.20
2018-08-23T08:34:44.993Z,20.40
2018-08-23T08:38:48.084Z,20.50
2018-08-23T08:42:51.213Z,20.70
2018-08-23T08:46:54.312Z,20.80
2018-08-23T08:55:13.145Z,21.00
2018-08-23T08:59:16.282Z,21.00
2018-08-23T09:03:20.302Z,21.30
2018-08-23T09:07:26.822Z,21.50
2018-08-23T09:11:29.916Z,21.60
2018-08-23T09:19:47.313Z,21.70
2018-08-23T09:23:50.767Z,21.80
2018-08-23T09:27:53.867Z,21.90
2018-08-23T09:32:11.621Z,21.90
2018-08-23T09:36:14.644Z,21.90
2018-08-23T09:44:21.684Z,21.90
2018-08-23T09:52:30.799Z,22.00
2018-08-23T10:00:42.309Z,21.90
2018-08-23T10:04:50.897Z,21.90
2018-08-23T10:09:08.274Z,21.90
2018-08-23T10:17:25.428Z,22.00
2018-08-23T10:21:33.948Z,22.00
2018-08-23T10:25:41.565Z,22.50
2018-08-23T10:33:47.911Z,23.10
2018-08-23T10:37:51.772Z,23.50
2018-08-23T10:41:54.874Z,23.80
2018-08-23T10:46:02.684Z,23.80
2018-08-23T10:50:05.919Z,23.90
2018-08-23T10:54:09.052Z,23.90
2018-08-23T10:58:12.145Z,24.10
2018-08-23T11:02:15.260Z,24.00
2018-08-23T11:06:18.360Z,23.20
2018-08-23T11:14:35.384Z,22.70
2018-08-23T11:22:47.105Z,22.30
2018-08-23T11:30:53.677Z,22.00
2018-08-23T11:38:59.876Z,22.30
2018-08-23T11:55:19.340Z,22.40
2018-08-23T11:59:22.524Z,22.30
2018-08-23T12:03:25.645Z,22.20
2018-08-23T12:07:29.548Z,22.10
2018-08-23T12:15:35.631Z,22.00
2018-08-23T12:23:41.620Z,21.80
2018-08-23T12:27:52.056Z,22.00
2018-08-23T12:31:55.820Z,22.20
2018-08-23T12:35:59.021Z,22.30
2018-08-23T12:40:07.388Z,22.40
2018-08-23T12:44:10.618Z,22.60
2018-08-23T12:56:21.417Z,23.50
2018-08-23T13:04:27.509Z,23.60
2018-08-23T13:12:40.162Z,23.50
2018-08-23T13:24:54.598Z,23.50
2018-08-23T13:28:57.812Z,23.40
2018-08-23T13:33:00.920Z,23.40
2018-08-23T13:41:07.240Z,23.20
2018-08-23T13:49:13.312Z,23.20
2018-08-23T13:53:16.429Z,23.20
2018-08-23T14:01:26.246Z,23.10
2018-08-23T14:09:32.300Z,22.90
2018-08-23T14:13:35.404Z,22.80
2018-08-23T14:17:38.649Z,22.70
2018-08-23T14:29:47.552Z,22.50
2018-08-23T14:37:53.780Z,22.50
2018-08-23T14:41:57.009Z,22.40
2018-08-23T14:46:05.409Z,22.30
2018-08-23T14:50:08.604Z,22.30
2018-08-23T14:58:20.292Z,22.40
2018-08-23T15:10:29.193Z,22.50
2018-08-23T15:14:32.420Z,22.60
2018-08-23T15:18:35.524Z,22.60
2018-08-23T15:22:38.674Z,22.50
2018-08-23T15:26:41.897Z,22.60
2018-08-23T15:30:45.753Z,22.70
2018-08-23T15:42:54.808Z,22.60
2018-08-23T15:51:00.842Z,22.40
2018-08-23T15:55:04.513Z,22.30
2018-08-23T15:59:07.500Z,22.20
2018-08-23T16:07:13.608Z,22.30
2018-08-23T16:11:16.849Z,22.20
2018-08-23T16:19:30.609Z,22.20
2018-08-23T16:23:33.697Z,22.00
2018-08-23T16:35:42.716Z,22.00
2018-08-23T16:39:45.956Z,22.00
2018-08-23T16:43:49.193Z,22.20
2018-08-23T16:47:52.325Z,22.10
2018-08-23T16:55:58.365Z,21.90
2018-08-23T17:04:04.438Z,21.80
2018-08-23T17:08:07.569Z,21.70
2018-08-23T17:12:10.780Z,21.60
2018-08-23T17:16:19.387Z,21.60
2018-08-23T17:24:25.645Z,21.60
2018-08-23T17:32:31.712Z,21.60
2018-08-23T17:36:34.821Z,21.60
2018-08-23T17:44:40.972Z,21.70
2018-08-23T17:48:44.216Z,21.80
2018-08-23T17:56:50.407Z,21.60
2018-08-23T18:13:02.624Z,21.50
2018-08-23T18:17:05.728Z,21.40
2018-08-23T18:29:14.844Z,21.30
2018-08-23T18:33:18.019Z,21.20
2018-08-23T18:41:24.473Z,21.10
2018-08-23T18:53:33.506Z,21.00
2018-08-23T19:01:40.046Z,20.60
2018-08-23T19:13:49.164Z,20.50
2018-08-23T19:17:52.344Z,20.20
2018-08-23T19:21:55.488Z,20.20
2018-08-23T19:25:58.678Z,20.10
2018-08-23T19:30:01.737Z,20.10
2018-08-23T19:34:04.954Z,20.10
2018-08-23T19:38:08.053Z,20.00
2018-08-23T19:42:11.408Z,20.00
2018-08-23T19:46:19.713Z,19.90
2018-08-23T19:50:23.053Z,19.90
2018-08-23T19:54:26.445Z,19.90
2018-08-23T19:58:29.572Z,19.40
2018-08-23T20:02:32.649Z,19.20
2018-08-23T20:06:35.861Z,18.80
2018-08-23T20:10:39.020Z,18.50
2018-08-23T20:18:45.240Z,18.20
2018-08-23T20:22:48.371Z,18.20
2018-08-23T20:26:51.510Z,17.90
2018-08-23T20:30:54.708Z,17.90
2018-08-23T20:34:57.779Z,17.60
2018-08-23T20:39:00.990Z,17.60
2018-08-23T20:43:04.191Z,17.60
2018-08-23T20:47:07.383Z,17.50
2018-08-23T20:51:10.516Z,17.40
2018-08-23T20:55:13.640Z,17.30
2018-08-23T20:59:16.752Z,17.20
2018-08-23T21:03:20.009Z,17.00
2018-08-23T21:07:23.117Z,17.00
2018-08-23T21:11:26.475Z,17.00
2018-08-23T21:15:29.564Z,16.90
2018-08-23T21:19:32.773Z,16.90
2018-08-23T21:23:35.888Z,16.90
2018-08-23T21:27:39.044Z,16.90
2018-08-23T21:31:42.140Z,16.90
2018-08-23T21:35:45.349Z,16.80
2018-08-23T21:39:48.441Z,16.70
2018-08-23T21:43:51.872Z,16.70
2018-08-23T21:47:54.968Z,16.70
2018-08-23T21:51:58.119Z,16.80
2018-08-23T21:56:01.237Z,13.90
2018-08-23T22:00:05.489Z,16.80
2018-08-23T22:04:08.581Z,16.70
2018-08-23T22:08:12.148Z,16.60
2018-08-23T22:12:15.248Z,16.60
2018-08-23T22:16:18.440Z,16.40
2018-08-23T22:20:21.580Z,16.20
2018-08-23T22:28:27.779Z,16.10
2018-08-23T22:32:30.913Z,16.00
2018-08-23T22:36:34.040Z,15.90
2018-08-23T22:40:37.704Z,15.80
2018-08-23T22:44:41.012Z,15.80
2018-08-23T22:48:44.141Z,15.80
2018-08-23T22:52:47.217Z,15.80
2018-08-23T22:56:50.432Z,15.80
2018-08-23T23:00:53.517Z,15.80
2018-08-23T23:04:56.639Z,15.90
2018-08-23T23:08:59.729Z,15.90
2018-08-23T23:13:02.857Z,15.90
2018-08-23T23:17:07.403Z,15.90
2018-08-23T23:21:10.596Z,15.80
2018-08-23T23:25:13.686Z,15.80
2018-08-23T23:29:17.069Z,15.80
2018-08-23T23:33:20.177Z,15.80
2018-08-23T23:37:23.935Z,15.80
2018-08-23T23:41:27.008Z,15.70
2018-08-23T23:45:30.553Z,15.60
2018-08-23T23:49:33.624Z,15.60
2018-08-23T23:53:36.740Z,15.60
2018-08-23T23:57:39.815Z,15.60
